Time;durP1;ratioP1;P1;durP2;ratioP2;P2;SDS_P1;SDS_P2;PMS_P1;PMS_P2;Temp;Humidity;BMP_temperature;BMP_pressure;BME280_temperature;BME280_humidity;BME280_pressure;Samples;Min_cycle;Max_cycle;Signal;HPM_P1;HPM_P2
2023/09/12 00:02:04;;;;;;;0.00;0.00;;;19.60;99.90;;;;;;5050719;28;20192;-59
2023/09/12 00:04:29;;;;;;;0.30;0.30;;;19.50;99.90;;;;;;5050197;28;20213;-59
2023/09/12 00:06:55;;;;;;;0.10;0.10;;;19.50;99.90;;;;;;5050542;28;20191;-60
2023/09/12 00:09:21;;;;;;;0.00;0.00;;;19.40;99.90;;;;;;5050318;28;20205;-59
2023/09/12 00:11:46;;;;;;;0.00;0.00;;;19.30;99.90;;;;;;5050813;28;20216;-60
2023/09/12 00:14:16;;;;;;;0.00;0.00;;;19.30;99.90;;;;;;5050076;28;20189;-60
2023/09/12 00:16:41;;;;;;;0.00;0.00;;;19.30;99.90;;;;;;5050186;28;20605;-60
2023/09/12 00:19:07;;;;;;;0.05;0.05;;;19.30;99.90;;;;;;5050478;28;20213;-60
2023/09/12 00:21:33;;;;;;;0.00;0.00;;;19.30;99.90;;;;;;5050098;28;20177;-60
2023/09/12 00:23:58;;;;;;;0.00;0.00;;;19.30;99.90;;;;;;5050112;28;20212;-60
2023/09/12 00:26:24;;;;;;;0.00;0.00;;;19.30;99.90;;;;;;5050347;28;20212;-60
2023/09/12 00:28:49;;;;;;;0.00;0.00;;;19.30;99.90;;;;;;5050373;28;20664;-60
2023/09/12 00:31:15;;;;;;;0.20;0.20;;;19.40;99.90;;;;;;5050336;28;20229;-60
2023/09/12 00:33:40;;;;;;;0.13;0.13;;;19.40;99.90;;;;;;5050352;28;20280;-60
2023/09/12 00:36:06;;;;;;;0.00;0.00;;;19.40;99.90;;;;;;5050401;28;20188;-60
2023/09/12 00:38:31;;;;;;;0.00;0.00;;;19.40;99.90;;;;;;5050141;28;20186;-60
2023/09/12 00:40:57;;;;;;;0.00;0.00;;;19.30;99.90;;;;;;5050304;28;20273;-60
2023/09/12 00:43:23;;;;;;;0.00;0.00;;;19.20;99.90;;;;;;5050261;28;20677;-60
2023/09/12 00:45:48;;;;;;;0.00;0.00;;;19.20;99.90;;;;;;5050397;28;20189;-60
2023/09/12 00:48:16;;;;;;;0.00;0.00;;;19.10;99.90;;;;;;5050279;28;20188;-60
2023/09/12 00:50:43;;;;;;;0.00;0.00;;;19.10;99.90;;;;;;5050286;28;20199;-60
2023/09/12 00:53:09;;;;;;;0.00;0.00;;;19.00;99.90;;;;;;5045299;28;20182;-60
2023/09/12 00:55:36;;;;;;;0.00;0.00;;;18.90;99.90;;;;;;5050291;28;20170;-60
2023/09/12 00:58:02;;;;;;;0.00;0.00;;;18.90;99.90;;;;;;5050293;28;20196;-60
2023/09/12 01:00:28;;;;;;;0.00;0.00;;;18.80;99.90;;;;;;5049941;28;20174;-60
2023/09/12 01:02:55;;;;;;;0.00;0.00;;;18.80;99.90;;;;;;5048778;28;20255;-61
2023/09/12 01:05:22;;;;;;;0.00;0.00;;;18.80;99.90;;;;;;5049821;28;20189;-60
2023/09/12 01:07:47;;;;;;;0.00;0.00;;;18.80;99.90;;;;;;5050512;28;20236;-60
2023/09/12 01:10:13;;;;;;;0.10;0.10;;;18.80;99.90;;;;;;5053351;28;20189;-60
2023/09/12 01:12:39;;;;;;;0.00;0.00;;;18.80;99.90;;;;;;5053773;28;20201;-60
2023/09/12 01:15:13;;;;;;;0.10;0.10;;;18.90;99.90;;;;;;5053485;28;20660;-60
2023/09/12 01:17:40;;;;;;;0.00;0.00;;;18.90;99.90;;;;;;5052331;28;20215;-60
2023/09/12 01:20:09;;;;;;;0.00;0.00;;;18.90;99.90;;;;;;5053418;28;20186;-60
2023/09/12 01:23:15;;;;;;;0.00;0.00;;;18.90;99.90;;;;;;5053159;28;20177;-60
2023/09/12 01:25:50;;;;;;;0.00;0.00;;;18.80;99.90;;;;;;5052912;28;20181;-60
2023/09/12 01:28:16;;;;;;;0.00;0.00;;;18.70;99.90;;;;;;5051311;28;20180;-60
2023/09/12 01:30:45;;;;;;;0.00;0.00;;;18.60;99.90;;;;;;5053161;28;20188;-60
2023/09/12 01:33:11;;;;;;;0.00;0.00;;;18.60;99.90;;;;;;5053041;28;20513;-59
2023/09/12 01:35:37;;;;;;;0.00;0.00;;;18.50;99.90;;;;;;5053470;28;20189;-59
2023/09/12 01:38:03;;;;;;;0.10;0.10;;;18.40;99.90;;;;;;5053316;28;20177;-60
2023/09/12 01:40:38;;;;;;;0.00;0.00;;;18.40;99.90;;;;;;5052923;28;20243;-60
2023/09/12 01:43:06;;;;;;;0.00;0.00;;;18.50;99.90;;;;;;5053289;28;20299;-60
2023/09/12 01:45:32;;;;;;;0.05;0.05;;;18.50;99.90;;;;;;5053271;28;20235;-60
2023/09/12 01:47:59;;;;;;;0.00;0.00;;;18.60;99.90;;;;;;5053176;28;20188;-59
2023/09/12 01:50:28;;;;;;;0.00;0.00;;;18.60;99.90;;;;;;5053279;28;20185;-59
2023/09/12 01:52:54;;;;;;;0.00;0.00;;;18.70;99.90;;;;;;5046720;28;20185;-60
2023/09/12 01:55:20;;;;;;;0.05;0.05;;;18.70;99.90;;;;;;5053219;28;20189;-59
2023/09/12 01:57:47;;;;;;;1.17;0.82;;;18.70;99.90;;;;;;5052996;28;20177;-60
2023/09/12 02:00:13;;;;;;;0.20;0.20;;;18.70;99.90;;;;;;5052912;28;20189;-59
2023/09/12 02:02:38;;;;;;;0.00;0.00;;;18.70;99.90;;;;;;5052408;28;20663;-59
2023/09/12 02:05:22;;;;;;;0.03;0.03;;;18.60;99.90;;;;;;5052603;28;20193;-59
2023/09/12 02:07:48;;;;;;;0.00;0.00;;;18.60;99.90;;;;;;5052600;28;20231;-59
2023/09/12 02:10:14;;;;;;;0.47;0.47;;;18.60;99.90;;;;;;5052609;28;20193;-59
2023/09/12 02:12:40;;;;;;;0.00;0.00;;;18.70;99.90;;;;;;5052385;28;20188;-59
2023/09/12 02:15:06;;;;;;;0.38;0.28;;;18.60;99.90;;;;;;5051947;28;20518;-60
2023/09/12 02:17:31;;;;;;;0.17;0.17;;;18.60;99.90;;;;;;5052307;28;20189;-60
2023/09/12 02:19:57;;;;;;;0.00;0.00;;;18.50;99.90;;;;;;5051735;28;20188;-60
2023/09/12 02:22:23;;;;;;;0.00;0.00;;;18.50;99.90;;;;;;5052443;28;20269;-60
2023/09/12 02:24:49;;;;;;;0.08;0.08;;;18.50;99.90;;;;;;5052095;28;20227;-59
2023/09/12 02:27:14;;;;;;;0.00;0.00;;;18.50;99.90;;;;;;5051759;28;20205;-60
2023/09/12 02:29:42;;;;;;;0.00;0.00;;;18.40;99.90;;;;;;5052589;28;20213;-59
2023/09/12 02:32:08;;;;;;;0.00;0.00;;;18.40;99.90;;;;;;5052090;28;20224;-60
2023/09/12 02:34:34;;;;;;;0.00;0.00;;;18.40;99.90;;;;;;5052219;28;20185;-60
2023/09/12 02:37:00;;;;;;;0.10;0.10;;;18.40;99.90;;;;;;5052420;28;20287;-59
2023/09/12 02:39:26;;;;;;;0.00;0.00;;;18.50;99.90;;;;;;5052442;28;20640;-59
2023/09/12 02:41:51;;;;;;;0.08;0.08;;;18.50;99.90;;;;;;5052438;28;20237;-59
2023/09/12 02:44:17;;;;;;;0.00;0.00;;;18.50;99.90;;;;;;5052117;28;20217;-59
2023/09/12 02:46:42;;;;;;;0.00;0.00;;;18.50;99.90;;;;;;5052270;28;20189;-59
2023/09/12 02:49:08;;;;;;;0.00;0.00;;;18.50;99.90;;;;;;5052275;28;20537;-60
2023/09/12 02:51:33;;;;;;;0.00;0.00;;;18.50;99.90;;;;;;5052401;28;20228;-60
2023/09/12 02:53:59;;;;;;;0.10;0.10;;;18.50;99.90;;;;;;5045065;28;20192;-60
2023/09/12 02:56:25;;;;;;;0.00;0.00;;;18.50;99.90;;;;;;5052327;28;20186;-59
2023/09/12 02:58:50;;;;;;;0.10;0.10;;;18.50;99.90;;;;;;5051589;28;20181;-59
2023/09/12 03:01:17;;;;;;;0.13;0.13;;;18.50;99.90;;;;;;5051870;28;20177;-60
2023/09/12 03:03:46;;;;;;;0.00;0.00;;;18.60;99.90;;;;;;5052018;28;20217;-60
2023/09/12 03:06:12;;;;;;;0.03;0.03;;;18.60;99.90;;;;;;5051789;28;20239;-59
2023/09/12 03:08:39;;;;;;;0.03;0.03;;;18.70;99.90;;;;;;5051629;28;20177;-60
2023/09/12 03:11:07;;;;;;;0.00;0.00;;;18.80;99.90;;;;;;5050357;28;20174;-59
2023/09/12 03:13:33;;;;;;;0.03;0.03;;;18.80;99.90;;;;;;5051824;28;20204;-60
2023/09/12 03:15:58;;;;;;;0.00;0.00;;;18.90;99.90;;;;;;5051530;28;20653;-60
2023/09/12 03:18:24;;;;;;;0.00;0.00;;;18.90;99.90;;;;;;5051665;28;20192;-60
2023/09/12 03:20:49;;;;;;;0.10;0.05;;;19.00;99.90;;;;;;5051348;28;20239;-60
2023/09/12 03:23:15;;;;;;;0.00;0.00;;;19.10;99.90;;;;;;5051206;28;20200;-60
2023/09/12 03:25:40;;;;;;;0.00;0.00;;;19.00;99.90;;;;;;5051485;28;20586;-60
2023/09/12 03:28:07;;;;;;;0.10;0.10;;;19.00;99.90;;;;;;5051271;28;20264;-60
2023/09/12 03:30:37;;;;;;;0.05;0.05;;;19.00;99.90;;;;;;5051294;28;20170;-59
2023/09/12 03:33:03;;;;;;;0.00;0.00;;;18.90;99.90;;;;;;5050445;28;20529;-59
2023/09/12 03:35:31;;;;;;;0.00;0.00;;;19.00;99.90;;;;;;5049157;28;20234;-60
2023/09/12 03:37:56;;;;;;;0.28;0.28;;;18.90;99.90;;;;;;5051725;28;20687;-60
2023/09/12 03:40:22;;;;;;;0.00;0.00;;;19.00;99.90;;;;;;5051615;28;20208;-59
2023/09/12 03:42:47;;;;;;;0.17;0.15;;;19.00;99.90;;;;;;5051593;28;20220;-60
2023/09/12 03:45:13;;;;;;;0.00;0.00;;;18.90;99.90;;;;;;5050892;28;20193;-60
2023/09/12 03:47:38;;;;;;;0.10;0.10;;;18.90;99.90;;;;;;5051608;28;20177;-59
2023/09/12 03:50:04;;;;;;;0.00;0.00;;;18.70;99.90;;;;;;5051060;28;20186;-58
2023/09/12 03:52:30;;;;;;;0.00;0.00;;;18.70;99.90;;;;;;5046072;28;20197;-58
2023/09/12 03:54:55;;;;;;;0.00;0.00;;;18.60;99.90;;;;;;5049707;28;20185;-59
2023/09/12 03:57:22;;;;;;;0.00;0.00;;;18.50;99.90;;;;;;5050774;28;20546;-63
2023/09/12 03:59:47;;;;;;;0.00;0.00;;;18.40;99.90;;;;;;5051284;28;20181;-59
2023/09/12 04:02:13;;;;;;;0.00;0.00;;;18.30;99.90;;;;;;5051106;28;20231;-63
2023/09/12 04:04:38;;;;;;;0.00;0.00;;;18.30;99.90;;;;;;5051117;28;20209;-60
2023/09/12 04:07:05;;;;;;;0.10;0.10;;;18.30;99.90;;;;;;5050916;28;20178;-60
2023/09/12 04:09:31;;;;;;;0.15;0.15;;;18.30;99.90;;;;;;5050762;28;20190;-58
2023/09/12 04:11:57;;;;;;;0.00;0.00;;;18.20;99.90;;;;;;5050862;28;20656;-59
2023/09/12 04:14:22;;;;;;;0.00;0.00;;;18.20;99.90;;;;;;5050278;28;20275;-58
2023/09/12 04:16:48;;;;;;;0.00;0.00;;;18.20;99.90;;;;;;5051268;28;20520;-60
2023/09/12 04:19:14;;;;;;;0.15;0.15;;;18.20;99.90;;;;;;5049294;28;20178;-62
2023/09/12 04:21:40;;;;;;;0.00;0.00;;;18.20;99.90;;;;;;5050739;28;20182;-63
2023/09/12 04:24:07;;;;;;;0.00;0.00;;;18.20;99.90;;;;;;5050539;28;20213;-63
2023/09/12 04:26:33;;;;;;;0.00;0.00;;;18.30;99.90;;;;;;5050308;28;20181;-62
2023/09/12 04:28:59;;;;;;;0.00;0.00;;;18.30;99.90;;;;;;5050046;28;20182;-63
2023/09/12 04:31:24;;;;;;;0.00;0.00;;;18.30;99.90;;;;;;5050165;28;20787;-65
2023/09/12 04:33:53;;;;;;;0.00;0.00;;;18.30;99.90;;;;;;5049981;28;20177;-65
2023/09/12 04:36:19;;;;;;;0.15;0.10;;;18.30;99.90;;;;;;5050688;28;20738;-65
2023/09/12 04:38:45;;;;;;;0.30;0.30;;;18.30;99.90;;;;;;5050692;28;20236;-65
2023/09/12 04:41:14;;;;;;;0.00;0.00;;;18.40;99.90;;;;;;5049708;28;20186;-66
2023/09/12 04:43:40;;;;;;;0.10;0.10;;;18.40;99.90;;;;;;5051236;28;20688;-66
2023/09/12 04:46:06;;;;;;;0.00;0.00;;;18.40;99.90;;;;;;5054313;28;20195;-65
2023/09/12 04:48:31;;;;;;;0.00;0.00;;;18.30;99.90;;;;;;5054222;28;20196;-65
2023/09/12 04:50:57;;;;;;;0.03;0.03;;;18.30;99.90;;;;;;5054355;28;20652;-66
2023/09/12 04:53:22;;;;;;;0.10;0.10;;;18.30;99.90;;;;;;5044192;28;20261;-63
2023/09/12 04:55:48;;;;;;;0.10;0.10;;;18.30;99.90;;;;;;5053974;28;20660;-64
2023/09/12 04:58:14;;;;;;;0.00;0.00;;;18.30;99.90;;;;;;5054090;28;20182;-64
2023/09/12 05:00:40;;;;;;;0.00;0.00;;;18.30;99.90;;;;;;5053772;28;20181;-63
2023/09/12 05:03:06;;;;;;;0.17;0.17;;;18.30;99.90;;;;;;5054268;28;20197;-64
2023/09/12 05:05:35;;;;;;;0.00;0.00;;;18.30;99.90;;;;;;5054450;28;20181;-64
2023/09/12 05:08:00;;;;;;;0.03;0.03;;;18.30;99.90;;;;;;5054323;28;20232;-64
2023/09/12 05:10:26;;;;;;;0.20;0.20;;;18.30;99.90;;;;;;5054404;28;20580;-64
2023/09/12 05:12:51;;;;;;;0.10;0.10;;;18.30;99.90;;;;;;5054361;28;20174;-64
2023/09/12 05:15:17;;;;;;;0.00;0.00;;;18.30;99.90;;;;;;5054355;28;20646;-64
2023/09/12 05:17:42;;;;;;;0.00;0.00;;;18.30;99.90;;;;;;5054038;28;20224;-64
2023/09/12 05:20:08;;;;;;;0.00;0.00;;;18.30;99.90;;;;;;5052832;28;20174;-64
2023/09/12 05:22:34;;;;;;;0.00;0.00;;;18.30;99.90;;;;;;5052743;28;20181;-64
2023/09/12 05:24:59;;;;;;;0.30;0.30;;;18.40;99.90;;;;;;5052846;28;20217;-64
2023/09/12 05:27:25;;;;;;;0.00;0.00;;;18.40;99.90;;;;;;5052444;28;20191;-65
2023/09/12 05:29:50;;;;;;;0.00;0.00;;;18.40;99.90;;;;;;5054113;28;20188;-64
2023/09/12 05:32:16;;;;;;;0.00;0.00;;;18.40;99.90;;;;;;5053847;28;20225;-64
2023/09/12 05:34:42;;;;;;;0.08;0.08;;;18.50;99.90;;;;;;5054077;28;20174;-64
2023/09/12 05:37:07;;;;;;;0.00;0.00;;;18.50;99.90;;;;;;5053819;28;20636;-64
2023/09/12 05:39:33;;;;;;;0.08;0.08;;;18.50;99.90;;;;;;5053888;28;20177;-64
2023/09/12 05:41:58;;;;;;;0.00;0.00;;;18.60;99.90;;;;;;5053864;28;20656;-64
2023/09/12 05:44:24;;;;;;;0.10;0.10;;;18.60;99.90;;;;;;5053796;28;20217;-64
2023/09/12 05:46:49;;;;;;;0.00;0.00;;;18.60;99.90;;;;;;5053924;28;20174;-64
2023/09/12 05:49:15;;;;;;;0.13;0.13;;;18.70;99.90;;;;;;5053609;28;20185;-64
2023/09/12 05:51:42;;;;;;;0.00;0.00;;;18.80;99.90;;;;;;5053603;28;20174;-64
2023/09/12 05:54:08;;;;;;;0.10;0.10;;;18.80;99.90;;;;;;5052581;28;20205;-64
2023/09/12 05:56:34;;;;;;;0.00;0.00;;;18.90;99.90;;;;;;5053373;28;20599;-64
2023/09/12 05:58:59;;;;;;;0.00;0.00;;;19.00;99.90;;;;;;5053527;28;20696;-64
2023/09/12 06:01:25;;;;;;;0.00;0.00;;;19.00;99.90;;;;;;5053596;28;20256;-64
2023/09/12 06:03:51;;;;;;;0.00;0.00;;;19.10;99.90;;;;;;5053727;28;20539;-64
2023/09/12 06:06:16;;;;;;;0.00;0.00;;;19.10;99.90;;;;;;5053482;28;20182;-64
2023/09/12 06:08:42;;;;;;;0.00;0.00;;;19.30;99.90;;;;;;5053496;28;20174;-64
2023/09/12 06:11:07;;;;;;;0.00;0.00;;;19.40;99.90;;;;;;5053483;28;20176;-65
2023/09/12 06:13:35;;;;;;;0.15;0.08;;;19.50;99.90;;;;;;5053375;28;20178;-65
2023/09/12 06:16:01;;;;;;;0.00;0.00;;;19.50;99.90;;;;;;5053306;28;20177;-64
2023/09/12 06:18:28;;;;;;;0.10;0.10;;;19.60;99.90;;;;;;5053218;28;20169;-64
2023/09/12 06:20:54;;;;;;;0.00;0.00;;;19.60;99.90;;;;;;5053072;28;20173;-65
2023/09/12 06:23:20;;;;;;;0.00;0.00;;;19.70;99.90;;;;;;5053019;28;20228;-64
2023/09/12 06:25:45;;;;;;;0.00;0.00;;;19.80;99.90;;;;;;5053097;28;20180;-64
2023/09/12 06:28:11;;;;;;;0.08;0.08;;;19.80;99.90;;;;;;5052934;28;20198;-64
2023/09/12 06:30:36;;;;;;;0.00;0.00;;;19.90;99.90;;;;;;5053047;28;20174;-64
2023/09/12 06:33:02;;;;;;;0.00;0.00;;;19.90;99.90;;;;;;5053077;28;20653;-64
2023/09/12 06:35:28;;;;;;;0.32;0.32;;;20.00;99.90;;;;;;5052885;28;20177;-64
2023/09/12 06:37:55;;;;;;;0.00;0.00;;;20.10;99.90;;;;;;5052855;28;20238;-65
2023/09/12 06:40:21;;;;;;;0.00;0.00;;;20.10;99.90;;;;;;5053027;28;20200;-64
2023/09/12 06:42:47;;;;;;;0.00;0.00;;;20.20;99.90;;;;;;5052705;28;20633;-64
2023/09/12 06:45:12;;;;;;;0.00;0.00;;;20.30;99.90;;;;;;5052581;28;20181;-64
2023/09/12 06:47:38;;;;;;;0.00;0.00;;;20.30;99.90;;;;;;5052715;28;20165;-64
2023/09/12 06:50:03;;;;;;;0.00;0.00;;;20.30;99.90;;;;;;5052653;28;20542;-64
2023/09/12 06:52:29;;;;;;;0.00;0.00;;;20.30;99.90;;;;;;5052615;28;20607;-64
2023/09/12 06:54:54;;;;;;;0.00;0.00;;;20.30;99.90;;;;;;5052537;28;20178;-64
2023/09/12 06:57:20;;;;;;;0.00;0.00;;;20.40;99.90;;;;;;5052538;28;20698;-64
2023/09/12 06:59:47;;;;;;;0.20;0.20;;;20.60;99.90;;;;;;5052463;28;20520;-64
2023/09/12 07:02:13;;;;;;;0.20;0.17;;;20.90;99.90;;;;;;5052236;28;20200;-64
2023/09/12 07:04:38;;;;;;;0.05;0.05;;;21.30;99.90;;;;;;5052413;28;20209;-65
2023/09/12 07:07:04;;;;;;;0.00;0.00;;;21.80;99.90;;;;;;5051984;28;20185;-65
2023/09/12 07:09:30;;;;;;;0.00;0.00;;;22.40;99.90;;;;;;5052343;28;20184;-65
2023/09/12 07:11:55;;;;;;;0.00;0.00;;;23.00;99.90;;;;;;5052170;28;20185;-65
2023/09/12 07:14:21;;;;;;;0.00;0.00;;;23.40;99.90;;;;;;5052074;28;20621;-65
2023/09/12 07:16:47;;;;;;;0.82;0.80;;;24.00;99.90;;;;;;5052149;28;20173;-65
2023/09/12 07:19:12;;;;;;;0.00;0.00;;;24.80;99.90;;;;;;5051920;28;20720;-65
2023/09/12 07:21:38;;;;;;;0.10;0.10;;;25.50;99.90;;;;;;5052167;28;20184;-65
2023/09/12 07:24:05;;;;;;;0.10;0.10;;;26.10;99.90;;;;;;5051883;28;20303;-65
2023/09/12 07:26:31;;;;;;;0.00;0.00;;;26.60;99.70;;;;;;5051763;28;20548;-65
2023/09/12 07:28:56;;;;;;;0.00;0.00;;;26.80;98.90;;;;;;5051930;28;20174;-65
2023/09/12 07:31:22;;;;;;;0.00;0.00;;;26.80;98.50;;;;;;5051799;28;20249;-65
2023/09/12 07:33:47;;;;;;;0.00;0.00;;;26.50;98.80;;;;;;5051887;28;20633;-65
2023/09/12 07:36:13;;;;;;;0.00;0.00;;;26.30;98.80;;;;;;5051708;28;20265;-65
2023/09/12 07:38:39;;;;;;;0.00;0.00;;;26.20;98.80;;;;;;5052005;28;20635;-65
2023/09/12 07:41:04;;;;;;;0.00;0.00;;;26.20;99.60;;;;;;5051737;28;20205;-65
2023/09/12 07:43:30;;;;;;;0.00;0.00;;;26.70;99.30;;;;;;5051820;28;20308;-65
2023/09/12 07:45:58;;;;;;;0.17;0.17;;;27.30;99.20;;;;;;5051689;28;20188;-65
2023/09/12 07:48:24;;;;;;;0.00;0.00;;;28.10;97.00;;;;;;5050400;28;20613;-65
2023/09/12 07:50:51;;;;;;;0.00;0.00;;;28.60;96.10;;;;;;5051747;28;20230;-65
2023/09/12 07:53:17;;;;;;;0.00;0.00;;;29.00;95.60;;;;;;5051337;28;20200;-65
2023/09/12 07:55:46;;;;;;;0.00;0.00;;;29.10;95.40;;;;;;5051728;28;20170;-65
2023/09/12 07:58:18;;;;;;;0.00;0.00;;;29.30;94.50;;;;;;5051468;28;20173;-65
2023/09/12 08:00:44;;;;;;;0.00;0.00;;;29.50;93.90;;;;;;5051555;28;20651;-65
2023/09/12 08:03:09;;;;;;;0.00;0.00;;;29.60;93.60;;;;;;5051464;28;20208;-65
2023/09/12 08:05:35;;;;;;;0.00;0.00;;;29.70;93.10;;;;;;5051485;28;20641;-66
2023/09/12 08:08:01;;;;;;;0.00;0.00;;;30.00;92.20;;;;;;5051160;28;20670;-66
2023/09/12 08:10:27;;;;;;;0.00;0.00;;;30.50;91.90;;;;;;5051405;28;20181;-65
2023/09/12 08:12:53;;;;;;;0.10;0.10;;;30.90;91.30;;;;;;5051431;28;20173;-64
2023/09/12 08:15:19;;;;;;;0.00;0.00;;;31.20;90.30;;;;;;5050112;28;20260;-64
2023/09/12 08:17:45;;;;;;;0.00;0.00;;;31.40;88.60;;;;;;5052139;28;20708;-64
2023/09/12 08:20:11;;;;;;;0.10;0.10;;;31.50;86.30;;;;;;5055292;28;20243;-64
2023/09/12 08:22:37;;;;;;;0.00;0.00;;;31.50;84.50;;;;;;5055332;28;20714;-64
2023/09/12 08:25:03;;;;;;;0.10;0.10;;;31.50;85.80;;;;;;5055224;28;20212;-64
2023/09/12 08:27:29;;;;;;;0.00;0.00;;;31.70;85.30;;;;;;5055193;28;20181;-64
2023/09/12 08:29:54;;;;;;;0.00;0.00;;;31.90;83.80;;;;;;5055080;28;20184;-64
2023/09/12 08:32:20;;;;;;;0.00;0.00;;;32.10;82.50;;;;;;5054974;28;20232;-64
2023/09/12 08:34:45;;;;;;;0.00;0.00;;;32.40;82.70;;;;;;5053927;28;20184;-64
2023/09/12 08:37:11;;;;;;;0.00;0.00;;;32.60;81.80;;;;;;5054805;28;20268;-64
2023/09/12 08:39:45;;;;;;;8.55;2.10;;;33.00;79.10;;;;;;5055048;28;20181;-64
2023/09/12 08:42:15;;;;;;;0.28;0.28;;;33.20;76.40;;;;;;5054792;28;20172;-64
2023/09/12 08:44:42;;;;;;;0.25;0.22;;;33.30;75.40;;;;;;5054972;28;20243;-64
2023/09/12 08:47:09;;;;;;;0.60;0.20;;;33.50;73.90;;;;;;5054749;28;20260;-64
2023/09/12 08:49:37;;;;;;;0.10;0.00;;;33.70;73.90;;;;;;5054796;28;20184;-64
2023/09/12 08:52:03;;;;;;;0.10;0.10;;;33.90;72.90;;;;;;5054637;28;20188;-64
2023/09/12 08:54:29;;;;;;;0.00;0.00;;;34.10;71.00;;;;;;5054746;28;20172;-64
2023/09/12 08:56:56;;;;;;;0.00;0.00;;;34.20;71.00;;;;;;5054620;28;20272;-65
2023/09/12 08:59:22;;;;;;;0.00;0.00;;;34.30;71.40;;;;;;5054571;28;20259;-64
2023/09/12 09:01:50;;;;;;;0.00;0.00;;;34.30;69.80;;;;;;5054604;28;20264;-64
2023/09/12 09:04:18;;;;;;;0.10;0.10;;;34.40;69.00;;;;;;5054424;28;20236;-65
2023/09/12 09:06:45;;;;;;;0.00;0.00;;;34.50;68.60;;;;;;5054564;28;20247;-65
2023/09/12 09:09:12;;;;;;;0.00;0.00;;;34.50;68.80;;;;;;5054371;28;20172;-65
2023/09/12 09:11:37;;;;;;;0.00;0.00;;;34.60;67.80;;;;;;5054519;28;20173;-65
2023/09/12 09:14:03;;;;;;;0.00;0.00;;;34.60;69.00;;;;;;5054282;28;20283;-65
2023/09/12 09:16:29;;;;;;;0.10;0.10;;;34.70;68.20;;;;;;5054334;28;20180;-65
2023/09/12 09:18:59;;;;;;;0.10;0.10;;;34.80;67.30;;;;;;5054182;28;20258;-65
2023/09/12 09:21:31;;;;;;;0.00;0.00;;;34.90;66.00;;;;;;5054238;28;20188;-65
2023/09/12 09:24:03;;;;;;;0.00;0.00;;;34.90;65.50;;;;;;5054158;28;20216;-65
2023/09/12 09:26:46;;;;;;;0.00;0.00;;;34.90;65.10;;;;;;5054283;28;20183;-65
2023/09/12 09:29:17;;;;;;;0.00;0.00;;;34.90;65.00;;;;;;5052506;28;20541;-65
2023/09/12 09:31:45;;;;;;;0.15;0.15;;;34.90;63.80;;;;;;5053957;28;20298;-65
2023/09/12 09:34:21;;;;;;;0.70;0.70;;;34.90;63.90;;;;;;5053889;28;20696;-65
2023/09/12 09:36:53;;;;;;;0.00;0.00;;;34.60;65.10;;;;;;5054153;28;20176;-65
2023/09/12 09:39:21;;;;;;;0.08;0.08;;;34.60;64.70;;;;;;5053803;28;20189;-65
2023/09/12 09:41:52;;;;;;;0.00;0.00;;;34.40;64.10;;;;;;5053934;28;20177;-65
2023/09/12 09:44:17;;;;;;;0.10;0.10;;;34.40;64.90;;;;;;5053755;28;20209;-65
2023/09/12 09:46:44;;;;;;;0.00;0.00;;;34.30;63.10;;;;;;5054044;28;20173;-65
2023/09/12 09:49:11;;;;;;;0.03;0.03;;;34.30;63.90;;;;;;5053713;28;20216;-65
2023/09/12 09:51:43;;;;;;;0.00;0.00;;;34.50;64.10;;;;;;5053795;28;20176;-64
2023/09/12 09:54:09;;;;;;;0.00;0.00;;;34.60;63.70;;;;;;5033503;28;20177;-65
2023/09/12 09:56:49;;;;;;;0.00;0.00;;;34.70;64.90;;;;;;5033676;28;20205;-64
2023/09/12 09:59:18;;;;;;;0.25;0.25;;;34.80;63.50;;;;;;5033531;28;20182;-64
2023/09/12 10:01:45;;;;;;;0.00;0.00;;;34.80;62.50;;;;;;5033713;28;20514;-64
2023/09/12 10:04:11;;;;;;;0.30;0.30;;;34.80;61.50;;;;;;5033498;28;20648;-65
2023/09/12 10:06:38;;;;;;;0.00;0.00;;;34.80;61.20;;;;;;5033462;28;20181;-65
2023/09/12 10:09:08;;;;;;;0.13;0.13;;;34.70;62.30;;;;;;5033414;28;20185;-65
2023/09/12 10:11:35;;;;;;;0.05;0.05;;;34.70;62.70;;;;;;5033342;28;20201;-65
2023/09/12 10:14:03;;;;;;;0.00;0.00;;;34.90;62.10;;;;;;5033329;28;20178;-65
2023/09/12 10:16:54;;;;;;;0.00;0.00;;;34.80;62.60;;;;;;5033405;28;20174;-65
2023/09/12 10:19:26;;;;;;;0.00;0.00;;;34.80;61.60;;;;;;5033192;28;20181;-65
2023/09/12 10:22:31;;;;;;;0.10;0.10;;;35.00;60.10;;;;;;5033078;28;20189;-65
2023/09/12 10:24:58;;;;;;;0.10;0.10;;;34.80;59.60;;;;;;5032584;28;20279;-65
2023/09/12 10:27:25;;;;;;;0.00;0.00;;;34.50;60.80;;;;;;5047133;28;20227;-64
2023/09/12 10:29:53;;;;;;;0.10;0.10;;;34.50;61.40;;;;;;5053071;28;20177;-65
2023/09/12 10:32:20;;;;;;;0.00;0.00;;;34.50;60.40;;;;;;5052687;28;20319;-65
2023/09/12 10:34:48;;;;;;;0.00;0.00;;;34.50;59.30;;;;;;5052878;28;20246;-64
2023/09/12 10:37:19;;;;;;;0.00;0.00;;;34.20;60.20;;;;;;5052699;28;20177;-65
2023/09/12 10:39:45;;;;;;;0.00;0.00;;;33.90;60.60;;;;;;5052820;28;20183;-65
2023/09/12 10:42:12;;;;;;;0.00;0.00;;;33.80;61.80;;;;;;5051895;28;20185;-65
2023/09/12 10:44:38;;;;;;;0.00;0.00;;;33.70;61.20;;;;;;5052660;28;20697;-65
2023/09/12 10:47:04;;;;;;;0.00;0.00;;;33.70;62.20;;;;;;5052540;28;20259;-64
2023/09/12 10:49:31;;;;;;;0.00;0.00;;;33.80;63.50;;;;;;5052629;28;20319;-64
2023/09/12 10:51:57;;;;;;;0.03;0.03;;;33.80;61.40;;;;;;5052405;28;20181;-64
2023/09/12 10:54:37;;;;;;;0.00;0.00;;;33.70;61.00;;;;;;5052486;28;20184;-64
2023/09/12 10:57:04;;;;;;;0.20;0.20;;;33.60;60.50;;;;;;5052381;28;20529;-65
2023/09/12 10:59:35;;;;;;;0.00;0.00;;;33.50;59.90;;;;;;5052402;28;20181;-64
2023/09/12 11:02:32;;;;;;;0.00;0.00;;;33.50;60.30;;;;;;5052268;28;20174;-64
2023/09/12 11:04:59;;;;;;;0.10;0.10;;;33.80;60.70;;;;;;5052164;28;20216;-65
2023/09/12 11:07:40;;;;;;;0.47;0.47;;;34.10;59.50;;;;;;5052168;28;20173;-65
2023/09/12 11:10:15;;;;;;;0.00;0.00;;;34.30;59.40;;;;;;5052037;28;20180;-65
2023/09/12 11:12:45;;;;;;;0.00;0.00;;;34.50;58.70;;;;;;5052278;28;20171;-64
2023/09/12 11:15:11;;;;;;;0.05;0.05;;;34.70;58.90;;;;;;5052042;28;20165;-63
2023/09/12 11:17:46;;;;;;;0.00;0.00;;;34.70;57.60;;;;;;5052036;28;20540;-63
2023/09/12 11:20:14;;;;;;;0.00;0.00;;;34.60;56.80;;;;;;5051874;28;20184;-63
2023/09/12 11:22:41;;;;;;;0.10;0.10;;;34.40;57.00;;;;;;5052059;28;20195;-63
2023/09/12 11:25:27;;;;;;;0.00;0.00;;;34.40;57.60;;;;;;5051765;28;20574;-63
2023/09/12 11:27:53;;;;;;;0.00;0.00;;;34.50;56.70;;;;;;5051727;28;20176;-63
2023/09/12 11:30:20;;;;;;;0.20;0.20;;;34.30;56.60;;;;;;5051913;28;20185;-63
2023/09/12 11:32:48;;;;;;;0.00;0.00;;;34.30;57.30;;;;;;5051704;28;20335;-63
2023/09/12 11:35:14;;;;;;;0.00;0.00;;;34.40;57.10;;;;;;5051569;28;20184;-63
2023/09/12 11:37:51;;;;;;;0.00;0.00;;;34.40;56.60;;;;;;5051728;28;20262;-63
2023/09/12 11:40:22;;;;;;;0.00;0.00;;;34.50;57.30;;;;;;5051610;28;20180;-63
2023/09/12 11:42:49;;;;;;;0.00;0.00;;;34.50;56.20;;;;;;5051716;28;20231;-63
2023/09/12 11:45:18;;;;;;;0.10;0.10;;;34.50;56.10;;;;;;5051317;28;20244;-63
2023/09/12 11:47:44;;;;;;;0.00;0.00;;;34.60;55.60;;;;;;5051718;28;20177;-63
2023/09/12 11:50:33;;;;;;;0.30;0.20;;;34.50;55.60;;;;;;5051491;28;20260;-63
2023/09/12 11:53:06;;;;;;;0.00;0.00;;;34.60;56.20;;;;;;5050535;28;20185;-63
2023/09/12 11:55:36;;;;;;;0.00;0.00;;;34.60;55.30;;;;;;5051469;28;20246;-63
2023/09/12 11:58:03;;;;;;;0.95;0.95;;;34.40;55.30;;;;;;5051355;28;20173;-63
2023/09/12 12:00:28;;;;;;;0.55;0.40;;;34.40;55.60;;;;;;5051516;28;20180;-63
2023/09/12 12:02:55;;;;;;;0.35;0.35;;;34.60;55.20;;;;;;5051216;28;20265;-64
2023/09/12 12:05:21;;;;;;;0.00;0.00;;;34.40;55.90;;;;;;5051348;28;20199;-64
2023/09/12 12:07:48;;;;;;;0.00;0.00;;;34.40;55.10;;;;;;5051436;28;20267;-64
2023/09/12 12:10:14;;;;;;;0.00;0.00;;;34.50;55.10;;;;;;5051097;28;20662;-64
2023/09/12 12:12:39;;;;;;;0.00;0.00;;;34.50;55.40;;;;;;5051375;28;20177;-64
2023/09/12 12:15:11;;;;;;;0.00;0.00;;;34.50;54.60;;;;;;5051169;28;20256;-64
2023/09/12 12:17:37;;;;;;;0.00;0.00;;;34.70;53.10;;;;;;5051109;28;20181;-64
2023/09/12 12:20:09;;;;;;;0.00;0.00;;;34.60;52.20;;;;;;5051028;28;20185;-64
2023/09/12 12:22:36;;;;;;;0.00;0.00;;;34.40;52.30;;;;;;5051074;28;20179;-64
2023/09/12 12:25:11;;;;;;;0.00;0.00;;;34.30;52.50;;;;;;5051116;28;20248;-64
2023/09/12 12:27:39;;;;;;;0.17;0.17;;;34.30;53.50;;;;;;5050927;28;20176;-64
2023/09/12 12:30:13;;;;;;;0.00;0.00;;;34.20;53.30;;;;;;5050997;28;20241;-64
2023/09/12 12:32:52;;;;;;;0.00;0.00;;;34.30;53.40;;;;;;5050776;28;20357;-65
2023/09/12 12:35:21;;;;;;;0.10;0.10;;;34.20;52.40;;;;;;5050959;28;20177;-64
2023/09/12 12:37:53;;;;;;;0.00;0.00;;;34.20;53.10;;;;;;5051097;28;20181;-65
2023/09/12 12:40:19;;;;;;;0.00;0.00;;;34.30;53.80;;;;;;5050912;28;20176;-65
2023/09/12 12:42:48;;;;;;;0.00;0.00;;;34.50;53.60;;;;;;5050922;28;20536;-64
2023/09/12 12:45:15;;;;;;;0.00;0.00;;;34.80;53.90;;;;;;5050718;28;20295;-64
2023/09/12 12:47:41;;;;;;;0.00;0.00;;;34.70;53.30;;;;;;5050925;28;20621;-64
2023/09/12 12:50:20;;;;;;;0.00;0.00;;;34.70;52.70;;;;;;5050820;28;20653;-64